sensor_id;sensor_type;location;lat;lon;timestamp;P1;durP1;ratioP1;P2;durP2;ratioP2
72771;SDS011;60894;42.544;1.516;2023-05-07T00:00:47;4.75;;;2.20;;
72771;SDS011;60894;42.544;1.516;2023-05-07T00:03:14;6.18;;;2.30;;
72771;SDS011;60894;42.544;1.516;2023-05-07T00:05:43;7.20;;;2.35;;
72771;SDS011;60894;42.544;1.516;2023-05-07T00:08:10;6.50;;;2.00;;
72771;SDS011;60894;42.544;1.516;2023-05-07T00:10:37;5.73;;;2.53;;
72771;SDS011;60894;42.544;1.516;2023-05-07T00:13:04;6.68;;;2.30;;
72771;SDS011;60894;42.544;1.516;2023-05-07T00:15:31;5.10;;;2.08;;
72771;SDS011;60894;42.544;1.516;2023-05-07T00:17:58;4.60;;;2.10;;
72771;SDS011;60894;42.544;1.516;2023-05-07T00:20:25;6.88;;;2.50;;
72771;SDS011;60894;42.544;1.516;2023-05-07T00:22:53;6.07;;;2.77;;
72771;SDS011;60894;42.544;1.516;2023-05-07T00:25:20;4.72;;;2.10;;
72771;SDS011;60894;42.544;1.516;2023-05-07T00:27:47;4.82;;;2.22;;
72771;SDS011;60894;42.544;1.516;2023-05-07T00:30:14;4.65;;;2.30;;
72771;SDS011;60894;42.544;1.516;2023-05-07T00:32:41;5.28;;;2.05;;
72771;SDS011;60894;42.544;1.516;2023-05-07T00:35:10;4.63;;;1.97;;
72771;SDS011;60894;42.544;1.516;2023-05-07T00:37:37;6.43;;;2.25;;
72771;SDS011;60894;42.544;1.516;2023-05-07T00:40:06;4.57;;;2.00;;
72771;SDS011;60894;42.544;1.516;2023-05-07T00:42:34;5.43;;;2.08;;
72771;SDS011;60894;42.544;1.516;2023-05-07T00:45:02;7.30;;;1.90;;
72771;SDS011;60894;42.544;1.516;2023-05-07T00:47:29;6.10;;;2.20;;
72771;SDS011;60894;42.544;1.516;2023-05-07T00:49:56;6.55;;;2.38;;
72771;SDS011;60894;42.544;1.516;2023-05-07T00:52:23;5.55;;;2.20;;
72771;SDS011;60894;42.544;1.516;2023-05-07T00:54:52;6.13;;;2.10;;
72771;SDS011;60894;42.544;1.516;2023-05-07T00:57:22;5.22;;;2.10;;
72771;SDS011;60894;42.544;1.516;2023-05-07T00:59:50;5.77;;;2.07;;
72771;SDS011;60894;42.544;1.516;2023-05-07T01:02:18;6.35;;;2.20;;
72771;SDS011;60894;42.544;1.516;2023-05-07T01:04:45;7.10;;;1.90;;
72771;SDS011;60894;42.544;1.516;2023-05-07T01:07:12;4.78;;;1.83;;
72771;SDS011;60894;42.544;1.516;2023-05-07T01:09:39;4.82;;;1.92;;
72771;SDS011;60894;42.544;1.516;2023-05-07T01:12:06;5.83;;;2.10;;
72771;SDS011;60894;42.544;1.516;2023-05-07T01:14:36;6.32;;;2.13;;
72771;SDS011;60894;42.544;1.516;2023-05-07T01:17:03;6.00;;;2.20;;
72771;SDS011;60894;42.544;1.516;2023-05-07T01:19:29;4.90;;;1.98;;
72771;SDS011;60894;42.544;1.516;2023-05-07T01:22:00;6.03;;;2.03;;
72771;SDS011;60894;42.544;1.516;2023-05-07T01:24:31;4.30;;;1.93;;
72771;SDS011;60894;42.544;1.516;2023-05-07T01:26:59;4.78;;;1.92;;
72771;SDS011;60894;42.544;1.516;2023-05-07T01:29:27;5.95;;;1.70;;
72771;SDS011;60894;42.544;1.516;2023-05-07T01:31:55;4.20;;;2.00;;
72771;SDS011;60894;42.544;1.516;2023-05-07T01:34:25;5.18;;;2.15;;
72771;SDS011;60894;42.544;1.516;2023-05-07T01:36:53;6.17;;;2.20;;
72771;SDS011;60894;42.544;1.516;2023-05-07T01:39:23;6.47;;;2.33;;
72771;SDS011;60894;42.544;1.516;2023-05-07T01:41:53;8.57;;;2.03;;
72771;SDS011;60894;42.544;1.516;2023-05-07T01:44:21;7.95;;;2.33;;
72771;SDS011;60894;42.544;1.516;2023-05-07T01:46:49;5.40;;;2.05;;
72771;SDS011;60894;42.544;1.516;2023-05-07T01:49:16;6.07;;;2.23;;
72771;SDS011;60894;42.544;1.516;2023-05-07T01:51:43;5.20;;;1.88;;
72771;SDS011;60894;42.544;1.516;2023-05-07T01:54:10;6.88;;;2.22;;
72771;SDS011;60894;42.544;1.516;2023-05-07T01:56:37;5.18;;;2.00;;
72771;SDS011;60894;42.544;1.516;2023-05-07T01:59:05;6.22;;;2.17;;
72771;SDS011;60894;42.544;1.516;2023-05-07T02:01:32;5.63;;;1.73;;
72771;SDS011;60894;42.544;1.516;2023-05-07T02:03:59;7.13;;;2.28;;
72771;SDS011;60894;42.544;1.516;2023-05-07T02:06:26;6.72;;;2.17;;
72771;SDS011;60894;42.544;1.516;2023-05-07T02:08:53;6.00;;;2.05;;
72771;SDS011;60894;42.544;1.516;2023-05-07T02:11:20;4.63;;;2.10;;
72771;SDS011;60894;42.544;1.516;2023-05-07T02:13:47;7.73;;;2.27;;
72771;SDS011;60894;42.544;1.516;2023-05-07T02:16:15;5.28;;;1.90;;
72771;SDS011;60894;42.544;1.516;2023-05-07T02:18:42;4.60;;;2.22;;
72771;SDS011;60894;42.544;1.516;2023-05-07T02:21:09;4.15;;;1.90;;
72771;SDS011;60894;42.544;1.516;2023-05-07T02:23:36;3.83;;;1.85;;
72771;SDS011;60894;42.544;1.516;2023-05-07T02:26:03;5.70;;;2.07;;
72771;SDS011;60894;42.544;1.516;2023-05-07T02:28:30;8.73;;;3.38;;
72771;SDS011;60894;42.544;1.516;2023-05-07T02:30:58;4.68;;;2.20;;
72771;SDS011;60894;42.544;1.516;2023-05-07T02:33:27;5.63;;;2.05;;
72771;SDS011;60894;42.544;1.516;2023-05-07T02:35:54;5.32;;;1.80;;
72771;SDS011;60894;42.544;1.516;2023-05-07T02:38:21;3.83;;;1.13;;
72771;SDS011;60894;42.544;1.516;2023-05-07T02:40:48;4.43;;;1.10;;
72771;SDS011;60894;42.544;1.516;2023-05-07T02:43:15;3.25;;;1.23;;
72771;SDS011;60894;42.544;1.516;2023-05-07T02:45:42;3.47;;;1.35;;
72771;SDS011;60894;42.544;1.516;2023-05-07T02:48:09;4.65;;;1.20;;
72771;SDS011;60894;42.544;1.516;2023-05-07T02:50:37;4.33;;;1.20;;
72771;SDS011;60894;42.544;1.516;2023-05-07T02:53:04;2.03;;;1.00;;
72771;SDS011;60894;42.544;1.516;2023-05-07T02:55:31;3.20;;;0.90;;
72771;SDS011;60894;42.544;1.516;2023-05-07T02:57:58;4.78;;;1.30;;
72771;SDS011;60894;42.544;1.516;2023-05-07T03:00:25;2.33;;;1.10;;
72771;SDS011;60894;42.544;1.516;2023-05-07T03:02:52;2.13;;;0.93;;
72771;SDS011;60894;42.544;1.516;2023-05-07T03:05:19;2.45;;;0.90;;
72771;SDS011;60894;42.544;1.516;2023-05-07T03:07:47;2.55;;;0.75;;
72771;SDS011;60894;42.544;1.516;2023-05-07T03:10:15;1.48;;;0.80;;
72771;SDS011;60894;42.544;1.516;2023-05-07T03:12:41;1.88;;;0.90;;
72771;SDS011;60894;42.544;1.516;2023-05-07T03:15:09;2.23;;;0.80;;
72771;SDS011;60894;42.544;1.516;2023-05-07T03:17:37;1.50;;;0.90;;
72771;SDS011;60894;42.544;1.516;2023-05-07T03:20:05;4.13;;;0.80;;
72771;SDS011;60894;42.544;1.516;2023-05-07T03:22:33;2.13;;;0.75;;
72771;SDS011;60894;42.544;1.516;2023-05-07T03:25:01;2.00;;;1.10;;
72771;SDS011;60894;42.544;1.516;2023-05-07T03:27:28;3.43;;;1.10;;
72771;SDS011;60894;42.544;1.516;2023-05-07T03:29:55;5.80;;;1.30;;
72771;SDS011;60894;42.544;1.516;2023-05-07T03:32:22;4.07;;;1.38;;
72771;SDS011;60894;42.544;1.516;2023-05-07T03:34:49;2.45;;;0.80;;
72771;SDS011;60894;42.544;1.516;2023-05-07T03:37:16;1.80;;;0.82;;
72771;SDS011;60894;42.544;1.516;2023-05-07T03:39:43;6.10;;;0.90;;
72771;SDS011;60894;42.544;1.516;2023-05-07T03:42:11;1.23;;;0.82;;
72771;SDS011;60894;42.544;1.516;2023-05-07T03:44:38;2.85;;;0.73;;
72771;SDS011;60894;42.544;1.516;2023-05-07T03:47:05;2.15;;;0.80;;
72771;SDS011;60894;42.544;1.516;2023-05-07T03:49:33;1.77;;;0.90;;
72771;SDS011;60894;42.544;1.516;2023-05-07T03:52:00;2.90;;;1.03;;
72771;SDS011;60894;42.544;1.516;2023-05-07T03:54:27;4.00;;;1.00;;
72771;SDS011;60894;42.544;1.516;2023-05-07T03:56:53;0.90;;;0.65;;
72771;SDS011;60894;42.544;1.516;2023-05-07T03:59:22;1.10;;;0.70;;
72771;SDS011;60894;42.544;1.516;2023-05-07T04:01:49;2.22;;;0.80;;
72771;SDS011;60894;42.544;1.516;2023-05-07T04:04:16;1.93;;;0.90;;
72771;SDS011;60894;42.544;1.516;2023-05-07T04:06:43;1.98;;;0.80;;
72771;SDS011;60894;42.544;1.516;2023-05-07T04:09:10;2.65;;;0.80;;
72771;SDS011;60894;42.544;1.516;2023-05-07T04:11:36;1.73;;;0.88;;
72771;SDS011;60894;42.544;1.516;2023-05-07T04:14:05;2.10;;;1.08;;
72771;SDS011;60894;42.544;1.516;2023-05-07T04:16:34;2.13;;;1.00;;
72771;SDS011;60894;42.544;1.516;2023-05-07T04:19:01;1.45;;;0.90;;
72771;SDS011;60894;42.544;1.516;2023-05-07T04:21:28;2.03;;;0.90;;
72771;SDS011;60894;42.544;1.516;2023-05-07T04:23:55;1.20;;;0.80;;
72771;SDS011;60894;42.544;1.516;2023-05-07T04:26:22;1.42;;;0.90;;
72771;SDS011;60894;42.544;1.516;2023-05-07T04:28:49;4.40;;;1.10;;
72771;SDS011;60894;42.544;1.516;2023-05-07T04:31:16;1.55;;;0.80;;
72771;SDS011;60894;42.544;1.516;2023-05-07T04:33:45;1.33;;;0.80;;
72771;SDS011;60894;42.544;1.516;2023-05-07T04:36:12;1.92;;;0.90;;
72771;SDS011;60894;42.544;1.516;2023-05-07T04:38:39;2.47;;;0.93;;
72771;SDS011;60894;42.544;1.516;2023-05-07T04:41:06;1.80;;;0.73;;
72771;SDS011;60894;42.544;1.516;2023-05-07T04:43:36;0.95;;;0.68;;
72771;SDS011;60894;42.544;1.516;2023-05-07T04:46:03;2.65;;;1.13;;
72771;SDS011;60894;42.544;1.516;2023-05-07T04:48:30;1.27;;;0.80;;
72771;SDS011;60894;42.544;1.516;2023-05-07T04:50:58;2.58;;;0.90;;
72771;SDS011;60894;42.544;1.516;2023-05-07T04:53:25;1.43;;;0.70;;
72771;SDS011;60894;42.544;1.516;2023-05-07T04:55:54;1.77;;;0.82;;
72771;SDS011;60894;42.544;1.516;2023-05-07T04:58:22;4.13;;;1.10;;
72771;SDS011;60894;42.544;1.516;2023-05-07T05:00:49;5.35;;;1.05;;
72771;SDS011;60894;42.544;1.516;2023-05-07T05:03:16;2.65;;;1.00;;
72771;SDS011;60894;42.544;1.516;2023-05-07T05:05:43;2.47;;;1.20;;
72771;SDS011;60894;42.544;1.516;2023-05-07T05:08:11;1.65;;;0.90;;
72771;SDS011;60894;42.544;1.516;2023-05-07T05:10:38;3.17;;;0.98;;
72771;SDS011;60894;42.544;1.516;2023-05-07T05:13:06;4.03;;;1.15;;
72771;SDS011;60894;42.544;1.516;2023-05-07T05:15:34;2.03;;;0.80;;
72771;SDS011;60894;42.544;1.516;2023-05-07T05:18:01;1.97;;;0.90;;
72771;SDS011;60894;42.544;1.516;2023-05-07T05:20:28;2.00;;;0.90;;
72771;SDS011;60894;42.544;1.516;2023-05-07T05:22:55;1.70;;;0.90;;
72771;SDS011;60894;42.544;1.516;2023-05-07T05:25:23;1.63;;;0.80;;
72771;SDS011;60894;42.544;1.516;2023-05-07T05:27:50;3.22;;;1.10;;
72771;SDS011;60894;42.544;1.516;2023-05-07T05:30:17;4.33;;;1.10;;
72771;SDS011;60894;42.544;1.516;2023-05-07T05:32:44;2.38;;;0.93;;
72771;SDS011;60894;42.544;1.516;2023-05-07T05:35:11;3.25;;;1.02;;
72771;SDS011;60894;42.544;1.516;2023-05-07T05:37:38;1.42;;;1.00;;
72771;SDS011;60894;42.544;1.516;2023-05-07T05:40:05;3.40;;;1.00;;
72771;SDS011;60894;42.544;1.516;2023-05-07T05:42:34;1.70;;;0.90;;
72771;SDS011;60894;42.544;1.516;2023-05-07T05:45:01;2.72;;;1.10;;
72771;SDS011;60894;42.544;1.516;2023-05-07T05:47:28;2.63;;;1.10;;
72771;SDS011;60894;42.544;1.516;2023-05-07T05:49:56;2.45;;;1.13;;
72771;SDS011;60894;42.544;1.516;2023-05-07T05:52:23;4.78;;;1.20;;
72771;SDS011;60894;42.544;1.516;2023-05-07T05:54:50;2.53;;;1.17;;
72771;SDS011;60894;42.544;1.516;2023-05-07T05:57:17;6.88;;;1.30;;
72771;SDS011;60894;42.544;1.516;2023-05-07T05:59:45;1.77;;;1.00;;
72771;SDS011;60894;42.544;1.516;2023-05-07T06:02:13;5.28;;;1.05;;
72771;SDS011;60894;42.544;1.516;2023-05-07T06:04:39;2.72;;;1.23;;
72771;SDS011;60894;42.544;1.516;2023-05-07T06:07:07;2.80;;;1.30;;
72771;SDS011;60894;42.544;1.516;2023-05-07T06:09:34;2.45;;;1.30;;
72771;SDS011;60894;42.544;1.516;2023-05-07T06:12:01;3.78;;;1.48;;
72771;SDS011;60894;42.544;1.516;2023-05-07T06:14:28;4.03;;;1.60;;
72771;SDS011;60894;42.544;1.516;2023-05-07T06:16:56;3.65;;;1.52;;
72771;SDS011;60894;42.544;1.516;2023-05-07T06:19:23;3.37;;;1.40;;
72771;SDS011;60894;42.544;1.516;2023-05-07T06:21:51;3.30;;;1.25;;
72771;SDS011;60894;42.544;1.516;2023-05-07T06:24:18;2.05;;;1.30;;
72771;SDS011;60894;42.544;1.516;2023-05-07T06:26:45;2.33;;;1.30;;
72771;SDS011;60894;42.544;1.516;2023-05-07T06:29:12;4.43;;;1.30;;
72771;SDS011;60894;42.544;1.516;2023-05-07T06:31:39;2.20;;;1.20;;
72771;SDS011;60894;42.544;1.516;2023-05-07T06:34:08;2.67;;;1.40;;
72771;SDS011;60894;42.544;1.516;2023-05-07T06:36:35;2.25;;;1.23;;
72771;SDS011;60894;42.544;1.516;2023-05-07T06:39:02;5.30;;;1.60;;
72771;SDS011;60894;42.544;1.516;2023-05-07T06:41:29;3.70;;;1.40;;
72771;SDS011;60894;42.544;1.516;2023-05-07T06:43:56;4.43;;;1.80;;
72771;SDS011;60894;42.544;1.516;2023-05-07T06:46:23;2.33;;;1.40;;
72771;SDS011;60894;42.544;1.516;2023-05-07T06:48:50;2.30;;;1.25;;
72771;SDS011;60894;42.544;1.516;2023-05-07T06:51:18;2.42;;;1.13;;
72771;SDS011;60894;42.544;1.516;2023-05-07T06:53:45;4.18;;;1.52;;
72771;SDS011;60894;42.544;1.516;2023-05-07T06:56:12;3.33;;;1.40;;
72771;SDS011;60894;42.544;1.516;2023-05-07T06:58:39;2.67;;;1.30;;
72771;SDS011;60894;42.544;1.516;2023-05-07T07:01:06;2.50;;;1.40;;
72771;SDS011;60894;42.544;1.516;2023-05-07T07:03:33;2.83;;;1.33;;
72771;SDS011;60894;42.544;1.516;2023-05-07T07:06:00;1.73;;;1.20;;
72771;SDS011;60894;42.544;1.516;2023-05-07T07:08:29;5.03;;;1.40;;
72771;SDS011;60894;42.544;1.516;2023-05-07T07:10:56;3.25;;;1.30;;
72771;SDS011;60894;42.544;1.516;2023-05-07T07:13:23;3.72;;;1.38;;
72771;SDS011;60894;42.544;1.516;2023-05-07T07:15:51;2.05;;;1.15;;
72771;SDS011;60894;42.544;1.516;2023-05-07T07:18:18;2.58;;;1.40;;
72771;SDS011;60894;42.544;1.516;2023-05-07T07:20:45;2.67;;;1.50;;
72771;SDS011;60894;42.544;1.516;2023-05-07T07:23:12;2.38;;;1.30;;
72771;SDS011;60894;42.544;1.516;2023-05-07T07:25:41;2.15;;;1.20;;
72771;SDS011;60894;42.544;1.516;2023-05-07T07:28:08;4.43;;;1.55;;
72771;SDS011;60894;42.544;1.516;2023-05-07T07:30:35;4.57;;;1.50;;
72771;SDS011;60894;42.544;1.516;2023-05-07T07:33:02;2.53;;;1.30;;
72771;SDS011;60894;42.544;1.516;2023-05-07T07:35:30;2.22;;;1.30;;
72771;SDS011;60894;42.544;1.516;2023-05-07T07:37:57;4.32;;;1.80;;
72771;SDS011;60894;42.544;1.516;2023-05-07T07:40:24;4.05;;;1.67;;
72771;SDS011;60894;42.544;1.516;2023-05-07T07:42:52;4.43;;;2.05;;
72771;SDS011;60894;42.544;1.516;2023-05-07T07:45:20;4.63;;;1.53;;
72771;SDS011;60894;42.544;1.516;2023-05-07T07:47:47;3.97;;;1.73;;
72771;SDS011;60894;42.544;1.516;2023-05-07T07:50:14;2.80;;;1.30;;
72771;SDS011;60894;42.544;1.516;2023-05-07T07:52:41;3.63;;;1.55;;
72771;SDS011;60894;42.544;1.516;2023-05-07T07:55:08;3.20;;;1.40;;
72771;SDS011;60894;42.544;1.516;2023-05-07T07:57:35;2.70;;;1.40;;
72771;SDS011;60894;42.544;1.516;2023-05-07T08:00:04;4.47;;;1.42;;
72771;SDS011;60894;42.544;1.516;2023-05-07T08:02:32;2.97;;;1.20;;
72771;SDS011;60894;42.544;1.516;2023-05-07T08:04:59;2.60;;;1.45;;
72771;SDS011;60894;42.544;1.516;2023-05-07T08:07:26;3.20;;;1.30;;
72771;SDS011;60894;42.544;1.516;2023-05-07T08:09:53;4.27;;;1.60;;
72771;SDS011;60894;42.544;1.516;2023-05-07T08:12:20;4.28;;;1.30;;
72771;SDS011;60894;42.544;1.516;2023-05-07T08:14:47;4.22;;;1.45;;
72771;SDS011;60894;42.544;1.516;2023-05-07T08:17:15;5.82;;;1.98;;
72771;SDS011;60894;42.544;1.516;2023-05-07T08:19:42;2.67;;;1.27;;
72771;SDS011;60894;42.544;1.516;2023-05-07T08:22:09;3.00;;;1.50;;
72771;SDS011;60894;42.544;1.516;2023-05-07T08:24:37;4.65;;;1.40;;
72771;SDS011;60894;42.544;1.516;2023-05-07T08:27:03;3.22;;;1.35;;
72771;SDS011;60894;42.544;1.516;2023-05-07T08:29:30;3.08;;;1.50;;
72771;SDS011;60894;42.544;1.516;2023-05-07T08:31:57;3.33;;;1.45;;
72771;SDS011;60894;42.544;1.516;2023-05-07T08:34:26;3.50;;;1.50;;
72771;SDS011;60894;42.544;1.516;2023-05-07T08:36:53;4.10;;;1.40;;
72771;SDS011;60894;42.544;1.516;2023-05-07T08:39:20;2.72;;;1.20;;
72771;SDS011;60894;42.544;1.516;2023-05-07T08:41:47;3.20;;;1.58;;
72771;SDS011;60894;42.544;1.516;2023-05-07T08:44:17;2.90;;;1.30;;
72771;SDS011;60894;42.544;1.516;2023-05-07T08:46:48;3.57;;;1.50;;
72771;SDS011;60894;42.544;1.516;2023-05-07T08:49:19;3.22;;;1.50;;
72771;SDS011;60894;42.544;1.516;2023-05-07T08:51:47;3.63;;;1.30;;
72771;SDS011;60894;42.544;1.516;2023-05-07T08:54:15;3.33;;;1.20;;
72771;SDS011;60894;42.544;1.516;2023-05-07T08:56:43;4.90;;;1.60;;
72771;SDS011;60894;42.544;1.516;2023-05-07T08:59:10;3.20;;;1.40;;
72771;SDS011;60894;42.544;1.516;2023-05-07T09:01:37;2.53;;;1.33;;
72771;SDS011;60894;42.544;1.516;2023-05-07T09:04:04;3.85;;;1.40;;
72771;SDS011;60894;42.544;1.516;2023-05-07T09:06:32;3.92;;;1.70;;
72771;SDS011;60894;42.544;1.516;2023-05-07T09:09:01;3.78;;;1.30;;
72771;SDS011;60894;42.544;1.516;2023-05-07T09:11:30;4.77;;;1.87;;
72771;SDS011;60894;42.544;1.516;2023-05-07T09:13:57;4.15;;;1.40;;
72771;SDS011;60894;42.544;1.516;2023-05-07T09:16:26;2.63;;;1.20;;
72771;SDS011;60894;42.544;1.516;2023-05-07T09:18:57;3.53;;;1.30;;
72771;SDS011;60894;42.544;1.516;2023-05-07T09:21:25;3.65;;;2.05;;
72771;SDS011;60894;42.544;1.516;2023-05-07T09:23:52;4.00;;;1.50;;
72771;SDS011;60894;42.544;1.516;2023-05-07T09:26:23;2.90;;;1.48;;
72771;SDS011;60894;42.544;1.516;2023-05-07T09:28:50;2.78;;;1.13;;
72771;SDS011;60894;42.544;1.516;2023-05-07T09:31:17;2.00;;;1.10;;
72771;SDS011;60894;42.544;1.516;2023-05-07T09:33:44;3.78;;;1.00;;
72771;SDS011;60894;42.544;1.516;2023-05-07T09:36:11;2.70;;;1.10;;
72771;SDS011;60894;42.544;1.516;2023-05-07T09:38:38;3.05;;;1.17;;
72771;SDS011;60894;42.544;1.516;2023-05-07T09:41:07;3.60;;;1.10;;
72771;SDS011;60894;42.544;1.516;2023-05-07T09:43:37;5.30;;;1.30;;
72771;SDS011;60894;42.544;1.516;2023-05-07T09:46:06;1.90;;;1.00;;
72771;SDS011;60894;42.544;1.516;2023-05-07T09:48:35;2.83;;;1.20;;
72771;SDS011;60894;42.544;1.516;2023-05-07T09:51:06;3.40;;;1.15;;
72771;SDS011;60894;42.544;1.516;2023-05-07T09:53:41;2.25;;;1.27;;
72771;SDS011;60894;42.544;1.516;2023-05-07T09:56:11;3.30;;;1.10;;
72771;SDS011;60894;42.544;1.516;2023-05-07T09:58:41;5.13;;;1.30;;
72771;SDS011;60894;42.544;1.516;2023-05-07T10:01:10;3.47;;;1.10;;
72771;SDS011;60894;42.544;1.516;2023-05-07T10:03:38;3.05;;;1.10;;
72771;SDS011;60894;42.544;1.516;2023-05-07T10:06:06;4.65;;;1.35;;
72771;SDS011;60894;42.544;1.516;2023-05-07T10:08:35;4.05;;;1.50;;
72771;SDS011;60894;42.544;1.516;2023-05-07T10:11:03;4.55;;;1.27;;
72771;SDS011;60894;42.544;1.516;2023-05-07T10:13:30;3.37;;;1.30;;
72771;SDS011;60894;42.544;1.516;2023-05-07T10:16:01;5.80;;;1.48;;
72771;SDS011;60894;42.544;1.516;2023-05-07T10:18:29;3.80;;;1.25;;
72771;SDS011;60894;42.544;1.516;2023-05-07T10:21:00;3.05;;;1.30;;
72771;SDS011;60894;42.544;1.516;2023-05-07T10:23:31;3.13;;;1.20;;
72771;SDS011;60894;42.544;1.516;2023-05-07T10:25:59;2.80;;;1.07;;
72771;SDS011;60894;42.544;1.516;2023-05-07T10:28:28;2.05;;;1.00;;
72771;SDS011;60894;42.544;1.516;2023-05-07T10:31:03;3.40;;;1.40;;
72771;SDS011;60894;42.544;1.516;2023-05-07T10:33:45;2.70;;;1.10;;
72771;SDS011;60894;42.544;1.516;2023-05-07T10:36:16;4.43;;;1.00;;
72771;SDS011;60894;42.544;1.516;2023-05-07T10:38:44;3.70;;;1.27;;
72771;SDS011;60894;42.544;1.516;2023-05-07T10:41:11;2.20;;;1.10;;
72771;SDS011;60894;42.544;1.516;2023-05-07T10:43:40;3.38;;;1.33;;
72771;SDS011;60894;42.544;1.516;2023-05-07T10:46:16;3.20;;;1.17;;
72771;SDS011;60894;42.544;1.516;2023-05-07T10:51:32;6.40;;;1.40;;
72771;SDS011;60894;42.544;1.516;2023-05-07T10:54:19;3.08;;;1.30;;
72771;SDS011;60894;42.544;1.516;2023-05-07T10:56:47;5.07;;;1.42;;
72771;SDS011;60894;42.544;1.516;2023-05-07T10:59:31;3.67;;;1.50;;
72771;SDS011;60894;42.544;1.516;2023-05-07T11:02:07;4.95;;;1.85;;
72771;SDS011;60894;42.544;1.516;2023-05-07T11:04:36;3.07;;;1.40;;
72771;SDS011;60894;42.544;1.516;2023-05-07T11:07:21;5.97;;;1.58;;
72771;SDS011;60894;42.544;1.516;2023-05-07T11:09:54;4.40;;;1.38;;
72771;SDS011;60894;42.544;1.516;2023-05-07T11:15:35;4.82;;;1.75;;
72771;SDS011;60894;42.544;1.516;2023-05-07T11:18:04;8.83;;;2.23;;
72771;SDS011;60894;42.544;1.516;2023-05-07T11:20:44;12.27;;;3.30;;
72771;SDS011;60894;42.544;1.516;2023-05-07T11:26:12;7.05;;;2.30;;
72771;SDS011;60894;42.544;1.516;2023-05-07T11:28:40;11.95;;;2.72;;
72771;SDS011;60894;42.544;1.516;2023-05-07T11:31:08;10.70;;;2.70;;
72771;SDS011;60894;42.544;1.516;2023-05-07T11:33:37;8.30;;;2.75;;
72771;SDS011;60894;42.544;1.516;2023-05-07T11:36:05;5.88;;;2.10;;
72771;SDS011;60894;42.544;1.516;2023-05-07T11:38:35;7.40;;;2.30;;
72771;SDS011;60894;42.544;1.516;2023-05-07T11:41:04;8.63;;;3.20;;
72771;SDS011;60894;42.544;1.516;2023-05-07T11:43:31;9.60;;;3.03;;
72771;SDS011;60894;42.544;1.516;2023-05-07T11:46:07;7.75;;;2.60;;
72771;SDS011;60894;42.544;1.516;2023-05-07T11:48:36;8.73;;;2.35;;
72771;SDS011;60894;42.544;1.516;2023-05-07T11:51:04;6.32;;;2.10;;
72771;SDS011;60894;42.544;1.516;2023-05-07T11:53:37;4.43;;;1.77;;
72771;SDS011;60894;42.544;1.516;2023-05-07T11:56:08;2.93;;;1.37;;
72771;SDS011;60894;42.544;1.516;2023-05-07T11:58:36;7.20;;;2.22;;
72771;SDS011;60894;42.544;1.516;2023-05-07T12:01:03;5.85;;;2.05;;
72771;SDS011;60894;42.544;1.516;2023-05-07T12:03:34;8.95;;;1.90;;
72771;SDS011;60894;42.544;1.516;2023-05-07T12:06:03;6.90;;;2.10;;
72771;SDS011;60894;42.544;1.516;2023-05-07T12:08:32;7.07;;;2.07;;
72771;SDS011;60894;42.544;1.516;2023-05-07T12:11:02;5.10;;;2.28;;
72771;SDS011;60894;42.544;1.516;2023-05-07T12:13:29;4.78;;;1.85;;
72771;SDS011;60894;42.544;1.516;2023-05-07T12:15:56;8.95;;;1.92;;
72771;SDS011;60894;42.544;1.516;2023-05-07T12:18:23;8.05;;;2.67;;
72771;SDS011;60894;42.544;1.516;2023-05-07T12:20:51;12.53;;;3.40;;
72771;SDS011;60894;42.544;1.516;2023-05-07T12:23:19;10.10;;;3.47;;
72771;SDS011;60894;42.544;1.516;2023-05-07T12:25:47;8.32;;;3.08;;
72771;SDS011;60894;42.544;1.516;2023-05-07T12:28:13;9.20;;;3.13;;
72771;SDS011;60894;42.544;1.516;2023-05-07T12:30:42;7.95;;;2.53;;
72771;SDS011;60894;42.544;1.516;2023-05-07T12:33:09;8.13;;;2.27;;
72771;SDS011;60894;42.544;1.516;2023-05-07T12:35:38;5.82;;;2.25;;
72771;SDS011;60894;42.544;1.516;2023-05-07T12:38:07;6.82;;;2.28;;
72771;SDS011;60894;42.544;1.516;2023-05-07T12:40:37;6.38;;;2.30;;
72771;SDS011;60894;42.544;1.516;2023-05-07T12:43:05;6.97;;;2.20;;
72771;SDS011;60894;42.544;1.516;2023-05-07T12:45:36;6.47;;;2.20;;
72771;SDS011;60894;42.544;1.516;2023-05-07T12:48:04;4.78;;;1.90;;
72771;SDS011;60894;42.544;1.516;2023-05-07T12:50:31;7.43;;;2.03;;
72771;SDS011;60894;42.544;1.516;2023-05-07T12:52:59;6.43;;;2.28;;
72771;SDS011;60894;42.544;1.516;2023-05-07T12:55:28;8.45;;;2.28;;
72771;SDS011;60894;42.544;1.516;2023-05-07T12:57:57;6.40;;;2.20;;
72771;SDS011;60894;42.544;1.516;2023-05-07T13:00:33;3.25;;;1.40;;
72771;SDS011;60894;42.544;1.516;2023-05-07T13:03:03;3.78;;;1.42;;
72771;SDS011;60894;42.544;1.516;2023-05-07T13:05:31;4.85;;;1.80;;
72771;SDS011;60894;42.544;1.516;2023-05-07T13:07:58;10.68;;;2.20;;
72771;SDS011;60894;42.544;1.516;2023-05-07T13:10:26;5.23;;;1.87;;
72771;SDS011;60894;42.544;1.516;2023-05-07T13:12:54;6.80;;;2.47;;
72771;SDS011;60894;42.544;1.516;2023-05-07T13:15:22;8.13;;;3.30;;
72771;SDS011;60894;42.544;1.516;2023-05-07T13:17:49;9.38;;;3.35;;
72771;SDS011;60894;42.544;1.516;2023-05-07T13:20:16;6.65;;;2.38;;
72771;SDS011;60894;42.544;1.516;2023-05-07T13:22:43;5.90;;;2.50;;
72771;SDS011;60894;42.544;1.516;2023-05-07T13:25:10;4.20;;;1.90;;
72771;SDS011;60894;42.544;1.516;2023-05-07T13:27:36;6.75;;;2.75;;
72771;SDS011;60894;42.544;1.516;2023-05-07T13:30:04;5.32;;;1.67;;
72771;SDS011;60894;42.544;1.516;2023-05-07T13:32:33;5.15;;;1.92;;
72771;SDS011;60894;42.544;1.516;2023-05-07T13:35:00;6.93;;;1.97;;
72771;SDS011;60894;42.544;1.516;2023-05-07T13:37:27;4.57;;;1.40;;
72771;SDS011;60894;42.544;1.516;2023-05-07T13:39:54;3.55;;;1.80;;
72771;SDS011;60894;42.544;1.516;2023-05-07T13:42:21;4.88;;;2.00;;
72771;SDS011;60894;42.544;1.516;2023-05-07T13:44:48;7.28;;;2.58;;
72771;SDS011;60894;42.544;1.516;2023-05-07T13:47:15;6.37;;;2.20;;
72771;SDS011;60894;42.544;1.516;2023-05-07T13:49:43;5.82;;;2.30;;
72771;SDS011;60894;42.544;1.516;2023-05-07T13:52:10;7.25;;;2.15;;
72771;SDS011;60894;42.544;1.516;2023-05-07T13:54:47;4.93;;;1.80;;
72771;SDS011;60894;42.544;1.516;2023-05-07T13:57:14;10.13;;;3.00;;
72771;SDS011;60894;42.544;1.516;2023-05-07T13:59:42;5.85;;;1.90;;
72771;SDS011;60894;42.544;1.516;2023-05-07T14:02:09;6.45;;;2.00;;
72771;SDS011;60894;42.544;1.516;2023-05-07T14:04:36;4.75;;;1.70;;
72771;SDS011;60894;42.544;1.516;2023-05-07T14:07:03;3.47;;;1.58;;
72771;SDS011;60894;42.544;1.516;2023-05-07T14:09:30;4.33;;;1.40;;
72771;SDS011;60894;42.544;1.516;2023-05-07T14:11:59;6.53;;;2.67;;
72771;SDS011;60894;42.544;1.516;2023-05-07T14:14:26;3.22;;;1.65;;
72771;SDS011;60894;42.544;1.516;2023-05-07T14:16:53;3.58;;;1.50;;
72771;SDS011;60894;42.544;1.516;2023-05-07T14:19:20;6.55;;;2.60;;
72771;SDS011;60894;42.544;1.516;2023-05-07T14:21:48;7.87;;;2.80;;
72771;SDS011;60894;42.544;1.516;2023-05-07T14:24:15;5.03;;;1.90;;
72771;SDS011;60894;42.544;1.516;2023-05-07T14:26:42;4.70;;;1.70;;
72771;SDS011;60894;42.544;1.516;2023-05-07T14:29:11;4.00;;;1.83;;
72771;SDS011;60894;42.544;1.516;2023-05-07T14:31:40;5.75;;;1.80;;
72771;SDS011;60894;42.544;1.516;2023-05-07T14:34:07;3.20;;;1.50;;
72771;SDS011;60894;42.544;1.516;2023-05-07T14:36:34;3.75;;;1.80;;
72771;SDS011;60894;42.544;1.516;2023-05-07T14:39:01;3.30;;;1.63;;
72771;SDS011;60894;42.544;1.516;2023-05-07T14:41:28;5.80;;;1.85;;
72771;SDS011;60894;42.544;1.516;2023-05-07T14:43:56;4.63;;;1.90;;
72771;SDS011;60894;42.544;1.516;2023-05-07T14:46:25;4.23;;;1.90;;
72771;SDS011;60894;42.544;1.516;2023-05-07T14:48:52;5.90;;;2.13;;
72771;SDS011;60894;42.544;1.516;2023-05-07T14:51:19;5.22;;;2.05;;
72771;SDS011;60894;42.544;1.516;2023-05-07T14:53:47;5.97;;;1.83;;
72771;SDS011;60894;42.544;1.516;2023-05-07T14:56:14;5.38;;;2.15;;
72771;SDS011;60894;42.544;1.516;2023-05-07T14:58:41;7.33;;;2.20;;
72771;SDS011;60894;42.544;1.516;2023-05-07T15:01:08;8.80;;;2.83;;